createdAt,value
2018-07-02T00:00:33.835Z,59.64
2018-07-02T00:01:33.854Z,59.64
2018-07-02T00:02:33.877Z,59.83
2018-07-02T00:03:33.895Z,58.84
2018-07-02T00:04:33.914Z,58.87
2018-07-02T00:05:33.936Z,58.84
2018-07-02T00:06:33.955Z,58.84
2018-07-02T00:07:33.976Z,58.84
2018-07-02T00:08:33.993Z,58.94
2018-07-02T00:09:34.017Z,59.71
2018-07-02T00:10:34.040Z,59.71
2018-07-02T00:11:34.055Z,58.65
2018-07-02T00:12:34.075Z,58.75
2018-07-02T00:13:34.098Z,58.75
2018-07-02T00:14:34.120Z,58.65
2018-07-02T00:15:34.139Z,58.37
2018-07-02T00:16:34.158Z,57.79
2018-07-02T00:17:34.181Z,57.98
2018-07-02T00:18:34.195Z,58.27
2018-07-02T00:19:34.219Z,58.37
2018-07-02T00:20:34.239Z,58.37
2018-07-02T00:21:34.262Z,58.17
2018-07-02T00:22:34.282Z,57.89
2018-07-02T00:23:34.301Z,58.08
2018-07-02T00:24:34.321Z,58.37
2018-07-02T00:25:34.342Z,58.37
2018-07-02T00:26:34.364Z,58.27
2018-07-02T00:27:34.378Z,58.65
2018-07-02T00:28:34.396Z,58.46
2018-07-02T00:29:34.419Z,58.17
2018-07-02T00:30:34.444Z,57.98
2018-07-02T00:31:34.461Z,57.79
2018-07-02T00:32:34.481Z,58.37
2018-07-02T00:33:34.500Z,58.56
2018-07-02T00:34:34.528Z,57.98
2018-07-02T00:35:34.541Z,58.46
2018-07-02T00:36:34.561Z,58.56
2018-07-02T00:37:34.577Z,58.94
2018-07-02T00:38:34.602Z,58.84
2018-07-02T00:39:34.624Z,58.37
2018-07-02T00:40:34.650Z,58.08
2018-07-02T00:41:34.660Z,58.37
2018-07-02T00:42:34.687Z,57.60
2018-07-02T00:43:34.701Z,58.17
2018-07-02T00:44:34.718Z,58.27
2018-07-02T00:45:34.741Z,58.27
2018-07-02T00:46:34.761Z,58.37
2018-07-02T00:47:34.780Z,58.17
2018-07-02T00:48:34.801Z,58.65
2018-07-02T00:49:34.823Z,57.79
2018-07-02T00:50:34.839Z,58.17
2018-07-02T00:51:34.861Z,58.27
2018-07-02T00:52:34.878Z,58.37
2018-07-02T00:53:34.904Z,58.44
2018-07-02T00:54:34.921Z,58.81
2018-07-02T00:55:34.942Z,58.62
2018-07-02T00:56:34.962Z,59.11
2018-07-02T00:57:34.988Z,59.11
2018-07-02T00:58:34.998Z,58.81
2018-07-02T00:59:35.023Z,59.48
2018-07-02T01:00:35.037Z,59.97
2018-07-02T01:01:35.061Z,59.87
2018-07-02T01:02:35.082Z,59.77
2018-07-02T01:03:35.100Z,58.91
2018-07-02T01:04:35.120Z,58.72
2018-07-02T01:05:35.140Z,58.44
2018-07-02T01:06:35.161Z,58.62
2018-07-02T01:07:35.178Z,58.34
2018-07-02T01:08:35.196Z,58.62
2018-07-02T01:09:35.223Z,57.95
2018-07-02T01:10:35.248Z,58.44
2018-07-02T01:11:35.263Z,58.44
2018-07-02T01:12:35.281Z,58.05
2018-07-02T01:13:35.308Z,58.05
2018-07-02T01:14:35.320Z,58.24
2018-07-02T01:15:35.338Z,58.24
2018-07-02T01:16:35.358Z,58.44
2018-07-02T01:17:35.382Z,58.24
2018-07-02T01:18:35.407Z,58.62
2018-07-02T01:19:35.420Z,57.67
2018-07-02T01:20:35.440Z,58.34
2018-07-02T01:21:35.455Z,57.86
2018-07-02T01:22:35.478Z,57.57
2018-07-02T01:23:35.495Z,58.44
2018-07-02T01:24:35.519Z,58.24
2018-07-02T01:25:35.538Z,57.38
2018-07-02T01:26:35.558Z,57.95
2018-07-02T01:27:35.575Z,57.28
2018-07-02T01:28:35.601Z,57.28
2018-07-02T01:29:35.613Z,57.38
2018-07-02T01:30:35.636Z,57.48
2018-07-02T01:31:35.652Z,58.05
2018-07-02T01:32:35.676Z,58.05
2018-07-02T01:33:35.696Z,58.15
2018-07-02T01:34:35.716Z,57.48
2018-07-02T01:35:35.741Z,58.24
2018-07-02T01:36:35.764Z,57.19
2018-07-02T01:37:35.770Z,58.53
2018-07-02T01:38:35.809Z,58.24
2018-07-02T01:39:35.811Z,58.05
2018-07-02T01:40:35.833Z,58.34
2018-07-02T01:41:35.853Z,58.40
2018-07-02T01:42:35.873Z,57.86
2018-07-02T01:43:35.891Z,58.24
2018-07-02T01:44:35.917Z,58.50
2018-07-02T01:45:35.930Z,59.08
2018-07-02T01:46:35.994Z,58.69
2018-07-02T01:47:35.968Z,58.50
2018-07-02T01:48:35.993Z,58.69
2018-07-02T01:49:36.008Z,59.27
2018-07-02T01:50:36.031Z,58.50
2018-07-02T01:51:36.048Z,59.45
2018-07-02T01:52:36.068Z,59.36
2018-07-02T01:53:36.090Z,59.75
2018-07-02T02:23:34.089Z,60.67
2018-07-02T02:24:34.078Z,60.19
2018-07-02T02:26:27.021Z,60.58
2018-07-02T02:27:27.008Z,60.96
2018-07-02T02:29:19.924Z,61.91
2018-07-02T02:30:19.934Z,61.91
2018-07-02T02:32:12.873Z,62.49
2018-07-02T02:33:12.866Z,62.46
2018-07-02T02:35:05.788Z,63.64
2018-07-02T02:36:05.802Z,62.94
2018-07-02T02:37:58.746Z,62.94
2018-07-02T02:38:58.730Z,63.32
2018-07-02T02:40:51.652Z,63.60
2018-07-02T02:41:51.663Z,62.74
2018-07-02T02:43:44.606Z,62.84
2018-07-02T02:44:44.600Z,63.03
2018-07-02T02:46:37.545Z,63.42
2018-07-02T02:47:37.534Z,63.70
2018-07-02T02:49:30.468Z,63.23
2018-07-02T02:50:30.484Z,63.42
2018-07-02T02:52:23.427Z,63.42
2018-07-02T02:53:23.417Z,63.70
2018-07-02T02:55:16.352Z,64.09
2018-07-02T02:56:16.359Z,64.66
2018-07-02T02:58:09.303Z,65.14
2018-07-02T02:59:09.299Z,65.14
2018-07-02T03:01:02.222Z,65.04
2018-07-02T03:02:02.233Z,65.14
2018-07-02T03:03:02.257Z,65.14
2018-07-02T03:04:02.279Z,64.95
2018-07-02T03:05:02.296Z,64.95
2018-07-02T03:06:02.311Z,64.37
2018-07-02T03:07:02.331Z,64.95
2018-07-02T03:08:02.354Z,64.28
2018-07-02T03:09:02.369Z,64.75
2018-07-02T03:10:02.392Z,64.47
2018-07-02T03:11:02.407Z,64.75
2018-07-02T03:12:02.428Z,65.42
2018-07-02T03:13:02.446Z,65.23
2018-07-02T03:14:02.465Z,65.04
2018-07-02T03:15:02.484Z,65.81
2018-07-02T03:16:02.507Z,66.00
2018-07-02T03:17:02.521Z,66.25
2018-07-02T03:18:02.545Z,66.35
2018-07-02T03:19:02.562Z,66.44
2018-07-02T03:20:02.578Z,66.16
2018-07-02T03:21:02.599Z,67.11
2018-07-02T03:22:02.619Z,66.83
2018-07-02T03:23:02.641Z,67.02
2018-07-02T03:24:02.656Z,66.35
2018-07-02T03:25:02.677Z,66.25
2018-07-02T03:26:02.697Z,66.25
2018-07-02T03:27:02.714Z,66.25
2018-07-02T03:28:02.733Z,66.25
2018-07-02T03:29:02.759Z,67.02
2018-07-02T03:30:02.779Z,67.30
2018-07-02T03:31:02.789Z,67.40
2018-07-02T03:32:02.819Z,67.21
2018-07-02T03:33:02.828Z,67.30
2018-07-02T03:34:02.850Z,67.59
2018-07-02T03:35:02.867Z,67.21
2018-07-02T03:36:02.884Z,67.59
2018-07-02T03:37:02.902Z,67.69
2018-07-02T03:38:02.933Z,67.97
2018-07-02T03:39:02.942Z,67.59
2018-07-02T03:40:02.963Z,67.40
2018-07-02T03:41:02.981Z,67.69
2018-07-02T03:42:03.001Z,67.88
2018-07-02T03:43:03.020Z,67.97
2018-07-02T03:44:03.042Z,67.78
2018-07-02T03:45:03.057Z,68.45
2018-07-02T03:46:03.077Z,68.35
2018-07-02T03:47:03.097Z,68.26
2018-07-02T03:48:03.120Z,68.35
2018-07-02T03:49:03.133Z,68.16
2018-07-02T03:50:03.154Z,68.64
2018-07-02T03:51:03.174Z,68.55
2018-07-02T03:52:03.206Z,68.64
2018-07-02T03:53:03.210Z,68.26
2018-07-02T03:54:03.225Z,68.74
2018-07-02T03:55:03.249Z,68.45
2018-07-02T03:56:03.269Z,68.16
2018-07-02T03:57:03.287Z,68.07
2018-07-02T03:58:03.308Z,67.88
2018-07-02T03:59:03.325Z,68.07
2018-07-02T04:00:03.350Z,68.01
2018-07-02T04:01:03.361Z,67.88
2018-07-02T04:02:03.384Z,67.91
2018-07-02T04:03:03.406Z,67.97
2018-07-02T04:04:03.418Z,68.35
2018-07-02T04:05:03.443Z,69.31
2018-07-02T04:06:03.461Z,69.89
2018-07-02T04:07:03.479Z,70.65
2018-07-02T04:08:03.499Z,69.60
2018-07-02T04:09:03.516Z,69.89
2018-07-02T04:10:03.534Z,69.41
2018-07-02T04:11:03.554Z,69.82
2018-07-02T04:12:03.604Z,69.82
2018-07-02T04:13:03.628Z,69.64
2018-07-02T04:14:03.613Z,69.64
2018-07-02T04:15:03.636Z,70.30
2018-07-02T04:16:03.651Z,69.89
2018-07-02T04:17:03.670Z,70.17
2018-07-02T04:18:03.686Z,70.65
2018-07-02T04:19:03.708Z,70.97
2018-07-02T04:20:03.728Z,71.61
2018-07-02T04:21:03.747Z,72.28
2018-07-02T04:22:03.767Z,71.89
2018-07-02T04:23:03.787Z,72.41
2018-07-02T04:24:03.805Z,72.41
2018-07-02T04:25:03.823Z,72.69
2018-07-02T04:26:03.842Z,72.41
2018-07-02T04:27:03.868Z,72.79
2018-07-02T04:28:03.881Z,72.69
2018-07-02T04:29:03.901Z,72.60
2018-07-02T04:30:03.921Z,72.69
2018-07-02T04:31:03.937Z,72.50
2018-07-02T04:32:03.959Z,71.83
2018-07-02T04:33:03.978Z,72.22
2018-07-02T04:34:03.996Z,71.16
2018-07-02T04:35:04.021Z,71.83
2018-07-02T04:36:04.033Z,70.97
2018-07-02T04:37:04.054Z,71.93
2018-07-02T04:38:04.077Z,72.41
2018-07-02T04:39:04.094Z,72.60
2018-07-02T04:40:04.113Z,72.79
2018-07-02T04:41:04.138Z,72.34
2018-07-02T04:42:04.173Z,72.34
2018-07-02T04:43:04.169Z,71.87
2018-07-02T04:44:04.186Z,72.44
2018-07-02T04:45:04.233Z,71.77
2018-07-02T04:46:04.226Z,71.77
2018-07-02T04:47:04.248Z,72.06
2018-07-02T04:48:04.266Z,71.48
2018-07-02T04:49:04.286Z,70.72
2018-07-02T04:50:04.306Z,70.81
2018-07-02T04:51:04.336Z,70.91
2018-07-02T04:52:04.346Z,71.77
2018-07-02T04:53:04.363Z,70.43
2018-07-02T04:54:04.384Z,70.53
2018-07-02T04:55:04.402Z,70.05
2018-07-02T04:56:04.421Z,70.62
2018-07-02T04:57:04.440Z,69.70
2018-07-02T04:58:04.467Z,69.80
2018-07-02T04:59:04.479Z,69.23
2018-07-02T05:00:04.499Z,69.03
2018-07-02T05:01:04.519Z,68.94
2018-07-02T05:02:04.539Z,68.46
2018-07-02T05:03:04.555Z,69.13
2018-07-02T05:04:04.578Z,69.80
2018-07-02T05:05:04.601Z,69.70
2018-07-02T05:06:04.616Z,69.23
2018-07-02T05:07:04.635Z,68.84
2018-07-02T05:08:04.655Z,68.55
2018-07-02T05:09:04.674Z,68.17
2018-07-02T05:10:04.695Z,68.40
2018-07-02T05:11:04.712Z,67.91
2018-07-02T05:12:04.883Z,67.44
2018-07-02T05:13:04.759Z,68.30
2018-07-02T05:14:04.770Z,68.78
2018-07-02T05:15:04.791Z,68.87
2018-07-02T05:16:04.810Z,68.59
2018-07-02T05:17:04.857Z,68.78
2018-07-02T05:18:04.850Z,68.30
2018-07-02T05:19:04.870Z,68.68
2018-07-02T05:20:04.888Z,68.30
2018-07-02T05:21:04.907Z,68.49
2018-07-02T05:22:04.928Z,68.21
2018-07-02T05:23:04.943Z,68.14
2018-07-02T05:24:04.964Z,67.95
2018-07-02T05:25:04.981Z,67.47
2018-07-02T05:26:05.009Z,66.16
2018-07-02T05:27:05.028Z,63.09
2018-07-02T05:28:05.045Z,58.50
2018-07-02T05:29:05.067Z,54.71
2018-07-02T05:30:05.084Z,52.25
2018-07-02T05:31:05.105Z,50.57
2018-07-02T05:32:05.129Z,47.91
2018-07-02T05:33:05.146Z,46.32
2018-07-02T05:34:05.169Z,45.08
2018-07-02T05:35:05.191Z,44.12
2018-07-02T05:36:05.213Z,43.09
2018-07-02T05:37:05.234Z,42.63
2018-07-02T05:38:05.258Z,42.13
2018-07-02T05:39:05.289Z,42.10
2018-07-02T05:40:05.307Z,41.93
2018-07-02T05:41:05.332Z,42.03
2018-07-02T05:42:05.357Z,42.20
2018-07-02T05:43:05.378Z,42.22
2018-07-02T05:44:05.407Z,41.83
2018-07-02T05:45:05.429Z,41.45
2018-07-02T05:46:05.552Z,41.17
2018-07-02T05:47:05.480Z,41.08
2018-07-02T05:48:05.508Z,41.49
2018-07-02T05:49:05.536Z,41.10
2018-07-02T05:50:05.563Z,41.33
2018-07-02T05:51:05.588Z,39.98
2018-07-02T05:52:05.619Z,39.69
2018-07-02T05:53:05.653Z,40.17
2018-07-02T05:54:05.675Z,39.61
2018-07-02T05:55:05.700Z,39.16
2018-07-02T05:56:05.729Z,38.09
2018-07-02T05:57:05.769Z,37.60
2018-07-02T05:58:05.780Z,37.59
2018-07-02T05:59:05.813Z,37.78
2018-07-02T06:00:05.878Z,37.39
2018-07-02T06:01:05.861Z,37.37
2018-07-02T06:02:05.891Z,38.54
2018-07-02T06:03:05.922Z,37.88
2018-07-02T06:04:05.951Z,37.12
2018-07-02T06:05:05.980Z,37.88
2018-07-02T06:06:06.012Z,37.78
2018-07-02T06:07:06.066Z,38.06
2018-07-02T06:08:06.109Z,38.21
2018-07-02T06:09:06.096Z,37.08
2018-07-02T06:10:06.143Z,35.52
2018-07-02T06:11:06.177Z,36.20
2018-07-02T06:12:06.196Z,35.61
2018-07-02T06:13:06.215Z,35.42
2018-07-02T06:14:06.251Z,35.13
2018-07-02T06:15:06.275Z,35.11
2018-07-02T06:16:06.307Z,36.07
2018-07-02T06:17:06.334Z,35.68
2018-07-02T06:18:06.364Z,35.70
2018-07-02T06:19:06.394Z,35.19
2018-07-02T06:20:06.416Z,34.98
2018-07-02T06:21:06.450Z,35.27
2018-07-02T06:22:06.481Z,35.45
2018-07-02T06:23:06.508Z,35.27
2018-07-02T06:24:06.545Z,35.74
2018-07-02T06:25:06.577Z,35.97
2018-07-02T06:26:06.604Z,34.61
2018-07-02T06:27:06.633Z,34.67
2018-07-02T06:28:06.662Z,34.58
2018-07-02T06:29:06.697Z,35.45
2018-07-02T06:30:06.723Z,35.08
2018-07-02T06:31:06.757Z,34.69
2018-07-02T06:32:07.313Z,35.17
2018-07-02T06:33:06.817Z,34.79
2018-07-02T06:34:06.845Z,34.69
2018-07-02T06:35:06.869Z,34.32
2018-07-02T06:36:06.901Z,34.38
2018-07-02T06:37:06.936Z,34.67
2018-07-02T06:38:06.965Z,34.48
2018-07-02T06:39:06.997Z,35.24
2018-07-02T06:40:07.025Z,35.53
2018-07-02T06:41:07.057Z,34.88
2018-07-02T06:42:07.093Z,35.08
2018-07-02T06:43:07.126Z,34.01
2018-07-02T06:44:07.148Z,34.30
2018-07-02T06:45:07.257Z,33.33
2018-07-02T06:46:07.281Z,34.22
2018-07-02T06:47:07.297Z,33.43
2018-07-02T06:48:07.315Z,33.85
2018-07-02T06:49:07.380Z,33.36
2018-07-02T06:51:12.140Z,32.68
2018-07-02T06:52:10.343Z,32.49
2018-07-02T06:53:09.943Z,32.63
2018-07-02T06:54:10.929Z,31.45
2018-07-02T06:55:11.077Z,31.53
2018-07-02T06:56:11.711Z,30.65
2018-07-02T06:57:29.364Z,32.03
2018-07-02T06:58:11.547Z,30.10
2018-07-02T06:59:08.640Z,30.58
2018-07-02T07:00:20.878Z,30.15
2018-07-02T07:01:13.967Z,30.74
2018-07-02T07:02:08.886Z,31.54
2018-07-02T07:03:30.712Z,31.35
2018-07-02T07:04:08.942Z,31.35
2018-07-02T07:05:09.830Z,31.34
2018-07-02T07:06:09.729Z,30.65
2018-07-02T07:07:09.101Z,30.55
2018-07-02T07:08:09.733Z,31.24
2018-07-02T07:09:30.192Z,31.63
2018-07-02T07:10:10.190Z,33.38
2018-07-02T07:11:10.155Z,33.75
2018-07-02T07:12:09.745Z,31.58
2018-07-02T07:13:09.354Z,31.48
2018-07-02T07:14:10.508Z,31.77
2018-07-02T07:15:31.165Z,32.08
2018-07-02T07:16:09.995Z,32.57
2018-07-02T07:17:16.011Z,31.88
2018-07-02T07:18:11.670Z,31.98
2018-07-02T07:19:10.105Z,33.36
2018-07-02T07:20:10.535Z,31.90
2018-07-02T07:21:31.191Z,31.51
2018-07-02T07:22:09.407Z,31.51
2018-07-02T07:23:10.782Z,31.41
2018-07-02T07:24:10.491Z,31.71
2018-07-02T07:25:11.918Z,32.00
2018-07-02T07:26:09.572Z,32.08
2018-07-02T07:27:30.492Z,31.77
2018-07-02T07:28:15.127Z,32.86
2018-07-02T07:29:14.761Z,33.25
2018-07-02T07:30:13.288Z,32.35
2018-07-02T07:31:09.757Z,32.84
2018-07-02T07:32:10.253Z,33.06
2018-07-02T07:33:32.092Z,32.28
2018-07-02T07:34:10.476Z,32.67
2018-07-02T07:35:11.555Z,32.84
2018-07-02T07:36:09.196Z,32.65
2018-07-02T07:37:10.033Z,33.43
2018-07-02T07:38:09.305Z,33.43
2018-07-02T07:39:30.358Z,33.34
2018-07-02T07:40:09.368Z,34.72
2018-07-02T07:41:09.397Z,33.43
2018-07-02T07:42:09.510Z,33.15
2018-07-02T07:43:09.500Z,32.75
2018-07-02T07:44:09.467Z,32.84
2018-07-02T07:45:30.546Z,33.12
2018-07-02T07:46:09.753Z,34.87
2018-07-02T07:47:09.696Z,35.37
2018-07-02T07:48:09.748Z,34.70
2018-07-02T07:49:09.699Z,33.09
2018-07-02T07:50:09.564Z,32.87
2018-07-02T07:51:30.601Z,32.86
2018-07-02T07:52:09.617Z,34.50
2018-07-02T07:53:09.711Z,34.09
2018-07-02T07:54:09.697Z,34.79
2018-07-02T07:55:09.724Z,35.29
2018-07-02T07:56:09.753Z,34.14
2018-07-02T07:57:30.842Z,32.97
2018-07-02T07:58:09.807Z,33.25
2018-07-02T07:59:09.870Z,33.34
2018-07-02T08:00:09.854Z,34.50
2018-07-02T08:01:10.035Z,34.40
2018-07-02T08:02:09.988Z,34.67
2018-07-02T08:03:30.956Z,35.25
2018-07-02T08:04:09.963Z,36.42
2018-07-02T08:05:10.116Z,35.64
2018-07-02T08:06:10.023Z,36.32
2018-07-02T08:07:10.082Z,35.55
2018-07-02T08:08:10.107Z,35.96
2018-07-02T08:09:31.153Z,37.12
2018-07-02T08:10:10.195Z,35.58
2018-07-02T08:11:10.174Z,35.19
2018-07-02T08:12:10.190Z,35.57
2018-07-02T08:13:10.246Z,34.48
2018-07-02T08:14:10.290Z,35.51
2018-07-02T08:15:31.282Z,35.78
2018-07-02T08:16:10.323Z,36.38
2018-07-02T08:17:10.733Z,36.56
2018-07-02T08:18:11.113Z,38.70
2018-07-02T08:19:10.462Z,37.74
2018-07-02T08:20:10.451Z,38.62
2018-07-02T08:21:31.788Z,38.04
2018-07-02T08:22:10.500Z,36.54
2018-07-02T08:23:10.495Z,37.82
2018-07-02T08:24:10.548Z,37.90
2018-07-02T08:25:10.592Z,39.26
2018-07-02T08:26:10.590Z,39.67
2018-07-02T08:27:31.661Z,37.92
2018-07-02T08:28:10.816Z,38.21
2018-07-02T08:29:10.717Z,37.63
2018-07-02T08:30:10.933Z,37.81
2018-07-02T08:31:10.782Z,38.09
